Time;durP1;ratioP1;P1;durP2;ratioP2;P2;SDS_P1;SDS_P2;PMS_P1;PMS_P2;Temp;Humidity;BMP_temperature;BMP_pressure;BME280_temperature;BME280_humidity;BME280_pressure;Samples;Min_cycle;Max_cycle;Signal;HPM_P1;HPM_P2
2022/12/15 00:38:55;;;;;;;5.28;4.78;;;;;;;12.63;68.06;97309.78;5091813;28;20035;-48
2022/12/15 00:41:21;;;;;;;10.32;7.30;;;;;;;12.54;67.79;97306.00;5091682;28;20012;-48
2022/12/15 00:43:47;;;;;;;6.80;5.43;;;;;;;12.49;67.88;97301.47;5091628;28;20070;-48
2022/12/15 00:48:57;;;;;;;6.40;5.75;;;;;;;12.51;68.16;97296.75;5091753;28;20059;-48
2022/12/15 01:21:31;;;;;;;7.43;4.40;;;;;;;12.06;68.32;97310.97;5095116;28;20077;-49
2022/12/15 01:23:57;;;;;;;20.02;18.02;;;;;;;12.01;68.62;97312.72;5094842;28;20051;-48
2022/12/15 01:26:22;;;;;;;36.17;32.63;;;;;;;12.13;67.97;97314.22;5094899;28;20089;-49
2022/12/15 01:28:48;;;;;;;13.82;12.35;;;;;;;12.08;68.22;97323.88;5094958;28;20401;-49
2022/12/15 01:31:13;;;;;;;8.38;7.25;;;;;;;11.99;68.44;97313.78;5095141;28;20024;-48
2022/12/15 01:33:41;;;;;;;10.50;4.47;;;;;;;11.99;68.50;97316.41;5094928;28;20493;-48
2022/12/15 01:36:08;;;;;;;5.57;4.07;;;;;;;11.95;69.04;97306.59;5093835;28;20024;-49
2022/12/15 01:38:34;;;;;;;5.75;4.53;;;;;;;11.91;69.08;97308.94;5093394;28;20406;-48
2022/12/15 01:41:06;;;;;;;5.72;2.97;;;;;;;11.87;69.00;97305.19;5094780;28;20024;-48
2022/12/15 01:43:35;;;;;;;3.83;2.75;;;;;;;11.84;68.88;97302.22;5094906;28;20359;-48
2022/12/15 01:46:14;;;;;;;5.30;2.72;;;;;;;11.85;68.91;97298.53;5093176;28;20406;-48
2022/12/15 01:48:47;;;;;;;5.55;3.05;;;;;;;11.98;68.92;97304.28;5093305;28;20521;-48
2022/12/15 01:51:38;;;;;;;3.53;2.83;;;;;;;12.06;68.52;97300.44;5093194;28;20027;-48
2022/12/15 01:54:18;;;;;;;3.47;3.17;;;;;;;12.24;68.81;97290.66;5094528;28;20020;-48
2022/12/15 01:56:52;;;;;;;5.53;3.63;;;;;;;12.34;68.54;97294.19;5094470;28;20020;-48
2022/12/15 01:59:25;;;;;;;4.28;3.10;;;;;;;12.32;68.88;97301.53;5093045;28;20059;-48
2022/12/15 02:01:51;;;;;;;5.75;2.85;;;;;;;12.36;67.97;97291.34;5094412;28;20406;-49
2022/12/15 02:04:19;;;;;;;19.35;15.90;;;;;;;12.48;68.14;97292.00;5093200;28;20028;-48
2022/12/15 02:06:45;;;;;;;7.05;6.35;;;;;;;12.67;68.19;97295.06;5094199;28;20049;-48
2022/12/15 02:09:11;;;;;;;16.92;13.80;;;;;;;12.77;67.48;97304.91;5094196;28;20024;-48
2022/12/15 02:11:48;;;;;;;7.50;3.17;;;;;;;12.81;66.59;97303.38;5094349;28;20023;-48
2022/12/15 02:14:43;;;;;;;7.03;4.72;;;;;;;12.80;65.79;97301.78;5092752;28;20028;-48
2022/12/15 02:17:23;;;;;;;4.72;3.80;;;;;;;12.68;66.05;97298.53;5094086;28;20020;-48
2022/12/15 02:20:12;;;;;;;6.35;3.28;;;;;;;12.55;66.44;97297.84;5094015;28;20541;-48
2022/12/15 02:22:49;;;;;;;3.72;2.58;;;;;;;12.61;66.39;97303.97;5093736;28;20105;-48
2022/12/15 02:25:17;;;;;;;8.50;2.88;;;;;;;12.52;66.14;97311.50;5093778;28;20031;-48
2022/12/15 02:28:07;;;;;;;4.53;2.85;;;;;;;12.46;66.81;97309.06;5094046;28;20051;-48
2022/12/15 02:34:04;;;;;;;4.90;2.90;;;;;;;12.37;66.59;97320.03;5093966;28;20109;-48
2022/12/15 02:36:40;;;;;;;4.68;3.20;;;;;;;12.37;66.85;97308.69;5092367;28;20031;-48
2022/12/15 02:39:05;;;;;;;6.28;2.63;;;;;;;12.34;66.81;97317.88;5093570;28;20198;-48
2022/12/15 02:41:37;;;;;;;3.33;2.78;;;;;;;12.22;66.96;97317.22;5093582;28;20110;-49
2022/12/15 02:44:14;;;;;;;3.47;2.83;;;;;;;12.16;67.39;97312.94;5093470;28;20034;-48
2022/12/15 02:46:48;;;;;;;3.58;2.67;;;;;;;12.06;67.58;97318.84;5093495;28;20111;-49
2022/12/15 02:49:20;;;;;;;4.60;2.78;;;;;;;12.05;68.28;97308.56;5093408;28;20024;-48
2022/12/15 02:52:29;;;;;;;4.22;2.55;;;;;;;11.97;68.29;97312.41;5092079;28;20122;-48
2022/12/15 02:55:13;;;;;;;5.60;3.08;;;;;;;11.92;68.60;97318.41;5068474;28;20040;-49
2022/12/15 02:58:18;;;;;;;4.10;3.10;;;;;;;11.86;68.64;97302.78;5091986;28;20032;-49
2022/12/15 03:00:54;;;;;;;8.35;3.17;;;;;;;11.86;68.88;97294.91;5093237;28;20028;-48
2022/12/15 03:03:21;;;;;;;5.45;3.05;;;;;;;11.86;68.44;97294.91;5091850;28;20092;-48
2022/12/15 03:05:53;;;;;;;3.45;2.70;;;;;;;11.79;68.76;97290.59;5092990;28;20032;-48
2022/12/15 03:08:20;;;;;;;3.70;3.10;;;;;;;11.75;69.13;97286.06;5093041;28;20024;-49
2022/12/15 03:10:47;;;;;;;6.47;3.63;;;;;;;11.73;69.85;97285.50;5092934;28;20027;-49
2022/12/15 03:13:13;;;;;;;6.70;3.45;;;;;;;11.75;69.86;97284.25;5092959;28;20021;-48
2022/12/15 03:15:38;;;;;;;3.53;2.78;;;;;;;11.90;69.81;97285.50;5091571;28;20073;-48
2022/12/15 03:18:04;;;;;;;4.22;2.75;;;;;;;11.99;69.38;97284.03;5092799;28;20493;-49
2022/12/15 03:20:30;;;;;;;3.47;2.83;;;;;;;12.02;68.29;97294.09;5091788;28;20490;-48
2022/12/15 03:22:55;;;;;;;5.03;3.20;;;;;;;11.95;68.97;97285.56;5091190;28;20579;-48
2022/12/15 03:25:21;;;;;;;4.03;2.70;;;;;;;11.88;68.83;97293.59;5092629;28;20077;-48
2022/12/15 03:27:48;;;;;;;4.18;3.53;;;;;;;11.83;69.19;97285.66;5091393;28;20574;-48
2022/12/15 03:30:14;;;;;;;5.07;3.83;;;;;;;11.79;69.04;97287.16;5092579;28;20024;-49
2022/12/15 03:32:40;;;;;;;6.18;2.97;;;;;;;11.74;69.42;97301.03;5092565;28;20028;-48
2022/12/15 03:35:06;;;;;;;6.38;2.88;;;;;;;11.84;69.11;97289.88;5092485;28;20032;-48
2022/12/15 03:37:31;;;;;;;4.85;2.97;;;;;;;11.92;68.59;97292.09;5092511;28;20020;-49
2022/12/15 03:39:57;;;;;;;4.88;2.70;;;;;;;11.86;68.66;97290.44;5091025;28;20031;-48
2022/12/15 03:45:07;;;;;;;4.43;2.47;;;;;;;11.91;68.68;97284.47;5092297;28;20089;-48
2022/12/15 03:47:32;;;;;;;4.10;2.63;;;;;;;11.92;68.56;97286.84;5092362;28;20023;-48
2022/12/15 03:49:58;;;;;;;3.15;2.28;;;;;;;11.90;68.55;97280.25;5090975;28;20103;-48
2022/12/15 03:52:24;;;;;;;13.63;3.75;;;;;;;11.82;68.94;97278.03;5090915;28;20032;-49
2022/12/15 03:54:52;;;;;;;4.65;2.53;;;;;;;11.90;70.10;97278.41;5090922;28;20524;-48
2022/12/15 03:57:18;;;;;;;6.13;2.80;;;;;;;12.09;69.56;97271.03;5090903;28;20031;-49
2022/12/15 03:59:43;;;;;;;2.70;2.50;;;;;;;12.08;69.06;97268.66;5090864;28;20107;-48
2022/12/15 04:02:10;;;;;;;6.45;3.33;;;;;;;11.90;69.63;97265.28;5090817;28;20463;-48
2022/12/15 04:04:36;;;;;;;9.23;2.72;;;;;;;12.08;69.47;97266.81;5092027;28;20024;-48
2022/12/15 04:07:02;;;;;;;4.70;2.47;;;;;;;12.24;68.36;97241.47;5091986;28;20031;-48
2022/12/15 04:09:27;;;;;;;3.97;2.22;;;;;;;12.34;67.30;97232.91;5090722;28;20070;-49
2022/12/15 04:11:53;;;;;;;5.50;3.28;;;;;;;12.45;67.22;97231.94;5092279;28;20565;-49
2022/12/15 04:14:18;;;;;;;6.07;2.70;;;;;;;12.46;66.86;97232.78;5090636;28;20020;-48
2022/12/15 04:16:44;;;;;;;7.15;2.92;;;;;;;12.43;67.13;97225.34;5091893;28;20103;-48
2022/12/15 04:21:54;;;;;;;3.72;2.88;;;;;;;12.28;67.87;97226.00;5091575;28;20039;-49
2022/12/15 05:32:40;;;;;;;5.50;2.50;;;;;;;11.52;71.37;97171.47;5094989;28;20039;-48
2022/12/15 05:35:06;;;;;;;3.83;2.40;;;;;;;11.54;71.01;97162.28;5093806;28;20027;-48
2022/12/15 05:37:32;;;;;;;4.57;2.03;;;;;;;11.63;71.54;97143.47;5093513;28;20030;-48
2022/12/15 05:39:57;;;;;;;2.45;1.60;;;;;;;11.65;71.02;97139.59;5095046;28;20053;-48
2022/12/15 05:42:23;;;;;;;2.22;1.52;;;;;;;11.74;71.12;97124.16;5094743;28;20024;-48
2022/12/15 05:44:48;;;;;;;10.13;2.13;;;;;;;11.80;70.27;97118.72;5094661;28;20035;-48
2022/12/15 05:47:14;;;;;;;10.25;2.75;;;;;;;11.67;70.29;97127.00;5094573;28;20494;-49
2022/12/15 05:49:40;;;;;;;5.75;2.63;;;;;;;11.63;70.77;97125.06;5094609;28;20493;-49
2022/12/15 05:52:08;;;;;;;6.85;2.63;;;;;;;11.82;71.23;97157.09;5094517;28;20394;-49
2022/12/15 05:54:34;;;;;;;7.88;2.90;;;;;;;11.93;70.02;97164.09;5094504;28;20405;-49
2022/12/15 05:57:00;;;;;;;4.35;2.00;;;;;;;11.73;69.44;97168.06;5094317;28;20024;-49
2022/12/15 05:59:25;;;;;;;5.57;2.38;;;;;;;11.50;69.95;97178.78;5094431;28;20028;-48
2022/12/15 06:01:51;;;;;;;3.67;2.42;;;;;;;11.54;70.88;97188.56;5094351;28;20013;-48
2022/12/15 06:04:16;;;;;;;6.28;2.75;;;;;;;11.61;69.87;97185.78;5093794;28;20537;-48
2022/12/15 06:06:42;;;;;;;8.15;5.18;;;;;;;11.70;70.08;97186.94;5092969;28;20028;-49
2022/12/15 06:09:08;;;;;;;7.53;3.50;;;;;;;11.75;69.24;97202.78;5092849;28;20032;-48
2022/12/15 06:11:34;;;;;;;5.30;3.67;;;;;;;11.78;68.84;97209.38;5094170;28;20058;-48
2022/12/15 06:13:59;;;;;;;7.57;2.33;;;;;;;11.75;69.36;97189.63;5092813;28;20035;-49
2022/12/15 06:16:28;;;;;;;4.05;2.33;;;;;;;11.60;69.56;97205.19;5094061;28;20095;-48
2022/12/15 06:18:58;;;;;;;3.15;2.42;;;;;;;11.43;70.61;97186.84;5093975;28;20059;-48
2022/12/15 06:21:27;;;;;;;3.35;2.42;;;;;;;11.32;71.24;97196.41;5092669;28;20016;-48
2022/12/15 06:23:54;;;;;;;4.97;2.90;;;;;;;11.45;71.06;97182.16;5093488;28;20101;-48
2022/12/15 06:26:32;;;;;;;2.90;1.92;;;;;;;11.69;70.62;97166.13;5093804;28;20549;-48
2022/12/15 06:29:01;;;;;;;5.53;2.60;;;;;;;11.87;70.36;97167.66;5093794;28;20032;-48
2022/12/15 06:31:27;;;;;;;5.65;2.20;;;;;;;11.94;69.88;97168.31;5093677;28;20502;-48
2022/12/15 06:33:54;;;;;;;8.35;2.65;;;;;;;11.91;70.15;97164.34;5092414;28;20051;-49
2022/12/15 06:36:22;;;;;;;11.18;3.25;;;;;;;11.83;69.84;97180.53;5092357;28;20032;-48
2022/12/15 06:38:49;;;;;;;11.32;3.42;;;;;;;11.82;70.07;97180.75;5093538;28;20048;-48
2022/12/15 06:41:17;;;;;;;3.75;2.53;;;;;;;11.75;69.52;97186.19;5093569;28;20035;-48
2022/12/15 06:43:47;;;;;;;5.32;3.38;;;;;;;11.64;68.74;97193.16;5092227;28;20027;-49
2022/12/15 06:46:13;;;;;;;5.10;3.08;;;;;;;11.54;68.79;97195.66;5092109;28;20497;-48
2022/12/15 06:48:41;;;;;;;7.05;3.35;;;;;;;11.46;69.10;97190.81;5092301;28;20099;-49
2022/12/15 06:51:07;;;;;;;7.03;2.95;;;;;;;11.50;69.63;97202.44;5093430;28;20023;-48
2022/12/15 06:53:37;;;;;;;12.77;4.85;;;;;;;11.52;69.34;97197.72;5092011;28;20020;-49
2022/12/15 06:56:06;;;;;;;9.32;3.35;;;;;;;11.57;69.10;97203.06;5091929;28;20524;-49
2022/12/15 06:58:32;;;;;;;9.82;3.72;;;;;;;11.78;69.03;97204.09;5093525;28;20020;-48
2022/12/15 07:00:58;;;;;;;6.38;3.15;;;;;;;11.80;67.62;97186.25;5091826;28;20059;-49
2022/12/15 07:03:24;;;;;;;6.13;2.83;;;;;;;11.75;68.65;97179.13;5093146;28;20063;-49
2022/12/15 07:06:03;;;;;;;5.65;3.33;;;;;;;11.73;69.79;97181.19;5092902;28;20035;-48
2022/12/15 07:08:30;;;;;;;7.97;3.63;;;;;;;11.73;69.47;97181.19;5075594;28;20040;-48
2022/12/15 07:10:55;;;;;;;8.43;3.17;;;;;;;11.68;69.60;97188.22;5092964;28;20028;-49
2022/12/15 07:13:21;;;;;;;20.42;4.57;;;;;;;11.73;69.11;97180.38;5091668;28;20562;-48
2022/12/15 07:15:48;;;;;;;9.80;3.83;;;;;;;11.69;69.42;97189.78;5090804;28;20028;-49
2022/12/15 07:18:15;;;;;;;7.60;3.63;;;;;;;11.47;69.52;97180.09;5093071;28;20425;-48
2022/12/15 07:20:42;;;;;;;8.55;3.70;;;;;;;11.32;70.01;97164.91;5091835;28;20039;-49
2022/12/15 07:23:08;;;;;;;9.23;3.85;;;;;;;11.22;69.80;97174.47;5092538;28;20036;-48
2022/12/15 07:25:38;;;;;;;9.63;4.13;;;;;;;10.97;70.22;97171.25;5092688;28;20028;-49
2022/12/15 07:28:05;;;;;;;11.95;4.55;;;;;;;10.80;70.87;97173.06;5092906;28;20417;-48
2022/12/15 07:30:32;;;;;;;6.93;4.10;;;;;;;10.59;71.43;97159.63;5092653;28;20086;-48
2022/12/15 07:32:58;;;;;;;9.40;4.03;;;;;;;10.42;72.53;97156.19;5092635;28;20032;-48
2022/12/15 07:35:24;;;;;;;15.13;5.22;;;;;;;10.45;72.82;97153.09;5091227;28;20024;-49
2022/12/15 07:37:49;;;;;;;9.35;5.22;;;;;;;10.70;73.36;97151.91;5092527;28;20035;-49
2022/12/15 07:40:15;;;;;;;7.85;5.60;;;;;;;10.99;72.66;97156.06;5092506;28;20021;-48
2022/12/15 07:42:41;;;;;;;15.68;5.55;;;;;;;11.08;71.84;97151.19;5074233;28;20073;-48
2022/12/15 07:45:07;;;;;;;14.15;6.50;;;;;;;11.12;72.03;97146.25;5092307;28;20044;-48
2022/12/15 07:47:34;;;;;;;9.30;6.15;;;;;;;11.25;71.08;97147.72;5092380;28;20024;-48
2022/12/15 07:50:00;;;;;;;9.00;6.03;;;;;;;11.21;70.29;97144.81;5092314;28;20018;-48
2022/12/15 07:52:27;;;;;;;9.00;4.80;;;;;;;10.99;70.10;97136.88;5092259;28;20111;-48
2022/12/15 07:54:52;;;;;;;10.00;6.00;;;;;;;10.83;70.42;97140.31;5092150;28;20031;-48
2022/12/15 07:57:18;;;;;;;18.05;6.20;;;;;;;10.58;71.79;97129.19;5074099;28;20032;-48
2022/12/15 07:59:44;;;;;;;17.88;5.75;;;;;;;10.71;71.87;97135.94;5092409;28;20024;-48
2022/12/15 08:02:11;;;;;;;15.45;6.57;;;;;;;10.88;71.66;97127.25;5090860;28;20429;-48
2022/12/15 08:04:37;;;;;;;9.52;7.47;;;;;;;11.15;70.52;97117.69;5092026;28;20016;-48
2022/12/15 08:07:03;;;;;;;10.65;7.15;;;;;;;10.92;69.49;97123.13;5090859;28;20473;-49
2022/12/15 08:09:30;;;;;;;14.02;7.95;;;;;;;10.77;70.79;97121.09;5090722;28;20070;-48
2022/12/15 08:11:56;;;;;;;9.73;7.45;;;;;;;10.79;69.21;97125.03;5092038;28;20020;-48
2022/12/15 08:14:22;;;;;;;8.93;7.28;;;;;;;10.67;69.33;97120.94;5090717;28;20054;-48
2022/12/15 08:16:48;;;;;;;10.25;7.50;;;;;;;10.53;69.31;97125.69;5091900;28;20490;-48
2022/12/15 08:19:15;;;;;;;11.65;7.20;;;;;;;10.46;69.86;97130.28;5091928;28;20016;-48
2022/12/15 08:21:44;;;;;;;12.63;7.45;;;;;;;10.49;70.55;97128.00;5090560;28;20032;-48
2022/12/15 08:24:10;;;;;;;12.57;7.68;;;;;;;10.54;70.03;97133.34;5090405;28;20040;-48
2022/12/15 08:26:39;;;;;;;16.73;8.52;;;;;;;10.62;70.03;97131.34;5092756;28;20069;-48
2022/12/15 08:29:07;;;;;;;15.15;9.75;;;;;;;10.73;70.21;97119.97;5098614;28;20055;-48
2022/12/15 08:31:33;;;;;;;18.98;8.77;;;;;;;10.79;70.10;97124.25;5097251;28;20511;-49
2022/12/15 08:34:00;;;;;;;14.38;8.95;;;;;;;10.83;69.99;97135.09;5098578;28;20056;-49
2022/12/15 08:36:27;;;;;;;13.65;7.97;;;;;;;10.81;69.54;97137.94;5098500;28;20044;-48
2022/12/15 08:38:56;;;;;;;10.60;7.35;;;;;;;10.87;68.97;97138.81;5098477;28;20032;-49
2022/12/15 08:41:25;;;;;;;14.10;8.77;;;;;;;10.76;68.23;97133.38;5098452;28;20031;-48
2022/12/15 08:43:50;;;;;;;15.38;8.73;;;;;;;10.62;69.25;97126.09;5098358;28;20035;-49
2022/12/15 08:46:18;;;;;;;14.77;9.88;;;;;;;10.65;69.01;97117.75;5098465;28;20024;-49
2022/12/15 08:48:45;;;;;;;14.88;9.10;;;;;;;10.71;69.59;97124.66;5098416;28;20016;-48
2022/12/15 08:51:11;;;;;;;17.02;8.27;;;;;;;10.91;70.19;97124.19;5080440;28;20023;-48
2022/12/15 08:53:37;;;;;;;18.80;8.93;;;;;;;11.15;69.22;97122.94;5098587;28;20375;-48
2022/12/15 08:56:05;;;;;;;15.00;9.35;;;;;;;11.29;69.10;97114.69;5098360;28;20028;-49
2022/12/15 08:58:31;;;;;;;23.52;11.00;;;;;;;11.37;69.24;97109.03;5098247;28;20028;-48
2022/12/15 09:01:05;;;;;;;17.70;10.85;;;;;;;11.38;69.04;97116.66;5098322;28;20080;-49
2022/12/15 09:03:32;;;;;;;18.08;12.00;;;;;;;11.40;69.08;97119.81;5096976;28;20133;-49
2022/12/15 09:06:02;;;;;;;44.00;11.32;;;;;;;11.51;69.35;97117.31;5097000;28;20016;-49
2022/12/15 09:08:29;;;;;;;23.17;16.58;;;;;;;11.75;68.72;97116.03;5098349;28;20031;-48
2022/12/15 09:10:57;;;;;;;65.80;58.90;;;;;;;11.74;67.65;97114.44;5098200;28;20097;-48
2022/12/15 09:13:23;;;;;;;46.72;36.85;;;;;;;11.77;67.69;97113.97;5096846;28;20031;-49
2022/12/15 09:15:59;;;;;;;106.65;77.05;;;;;;;11.77;67.78;97110.50;5098132;28;20312;-48
2022/12/15 09:18:25;;;;;;;93.00;83.97;;;;;;;11.81;67.28;97111.59;5096846;28;20024;-48
2022/12/15 09:20:50;;;;;;;27.00;13.32;;;;;;;11.84;67.28;97107.72;5098062;28;20042;-48
2022/12/15 09:23:16;;;;;;;17.45;14.15;;;;;;;11.68;66.92;97102.28;5097932;28;20039;-49
2022/12/15 09:25:43;;;;;;;25.73;14.15;;;;;;;11.43;67.81;97108.06;5097991;28;20097;-49
2022/12/15 09:28:08;;;;;;;50.90;44.40;;;;;;;11.45;69.02;97108.59;5098051;28;20020;-49
2022/12/15 09:30:34;;;;;;;33.40;25.23;;;;;;;11.56;68.23;97114.75;5098016;28;20031;-48
2022/12/15 09:33:00;;;;;;;20.83;16.92;;;;;;;11.63;67.42;97112.75;5096741;28;20024;-48
2022/12/15 09:35:26;;;;;;;311.17;48.33;;;;;;;11.72;67.37;97116.53;5097936;28;20486;-49
2022/12/15 09:37:52;;;;;;;21.88;12.15;;;;;;;11.77;67.77;97113.16;5097649;28;20505;-48
2022/12/15 09:40:19;;;;;;;24.27;17.40;;;;;;;11.98;66.90;97114.97;5094145;28;20055;-49
2022/12/15 09:42:52;;;;;;;17.23;9.02;;;;;;;12.12;66.16;97109.34;5094759;28;20379;-48
2022/12/15 09:45:27;;;;;;;49.22;44.13;;;;;;;12.03;66.36;97106.34;5094657;28;20020;-49
2022/12/15 09:48:01;;;;;;;22.80;20.45;;;;;;;11.73;67.70;97107.59;5094710;28;20486;-49
2022/12/15 09:50:34;;;;;;;25.23;14.00;;;;;;;11.37;68.90;97096.69;5094608;28;20032;-48
2022/12/15 09:53:02;;;;;;;77.95;69.97;;;;;;;10.91;71.37;97096.09;5094644;28;20401;-48
2022/12/15 09:55:32;;;;;;;21.20;11.73;;;;;;;10.71;73.03;97090.56;5094393;28;20058;-49
2022/12/15 09:58:43;;;;;;;16.30;13.15;;;;;;;10.52;75.80;97077.69;5093186;28;20027;-48
2022/12/15 10:01:51;;;;;;;25.30;21.45;;;;;;;10.45;76.86;97069.19;5015322;28;20033;-48
2022/12/15 10:04:25;;;;;;;21.67;14.10;;;;;;;10.23;78.10;97071.69;4992555;28;20124;-48
2022/12/15 10:06:55;;;;;;;73.50;66.43;;;;;;;10.17;78.88;97051.66;4992536;28;20113;-48
2022/12/15 10:09:26;;;;;;;16.90;12.23;;;;;;;9.98;79.72;97054.53;4992417;28;20042;-48
2022/12/15 10:11:58;;;;;;;15.70;12.80;;;;;;;10.05;81.06;97062.22;4992531;28;20045;-48
2022/12/15 10:14:42;;;;;;;13.20;11.25;;;;;;;9.88;81.04;97045.66;4992297;28;20386;-48
2022/12/15 10:17:43;;;;;;;20.30;15.02;;;;;;;9.63;82.52;97038.19;4992395;28;20029;-48
2022/12/15 10:20:23;;;;;;;21.73;15.98;;;;;;;9.26;83.29;97033.31;4991255;28;20042;-48
2022/12/15 10:22:50;;;;;;;41.47;35.42;;;;;;;9.15;85.34;97032.28;4992077;28;20082;-48
2022/12/15 10:25:20;;;;;;;26.02;22.35;;;;;;;9.22;87.06;97026.94;4992214;28;20026;-48
2022/12/15 10:28:16;;;;;;;67.43;51.92;;;;;;;9.30;88.78;97021.34;4992177;28;20038;-48
2022/12/15 10:30:54;;;;;;;23.95;16.70;;;;;;;9.60;90.71;97019.28;4992171;28;20030;-47
2022/12/15 10:33:23;;;;;;;25.92;12.98;;;;;;;9.94;92.18;97023.75;4992152;28;20444;-47
2022/12/15 10:35:52;;;;;;;42.17;27.20;;;;;;;10.25;93.53;97021.66;5026409;28;20468;-47
2022/12/15 10:38:46;;;;;;;25.58;13.18;;;;;;;10.49;93.83;97014.44;5051227;28;20029;-47
2022/12/15 10:41:21;;;;;;;23.45;14.13;;;;;;;10.58;94.54;97011.16;5090952;28;20159;-47
2022/12/15 10:43:50;;;;;;;20.15;13.95;;;;;;;10.57;94.54;97011.41;5092272;28;20397;-47
2022/12/15 10:46:25;;;;;;;29.50;19.67;;;;;;;10.62;95.48;97013.28;5093366;28;20024;-47
2022/12/15 10:49:06;;;;;;;21.20;14.40;;;;;;;10.68;96.24;97005.22;5093546;28;20024;-47
2022/12/15 10:51:36;;;;;;;32.05;13.43;;;;;;;10.67;96.19;97001.03;5092246;28;20028;-46
2022/12/15 10:54:08;;;;;;;45.35;15.25;;;;;;;10.44;95.40;96990.75;5093422;28;20570;-46
2022/12/15 10:56:55;;;;;;;24.60;13.90;;;;;;;10.33;96.74;96987.19;5092040;28;20115;-46
2022/12/15 10:59:31;;;;;;;30.10;12.60;;;;;;;10.32;97.22;96993.44;5093315;28;20526;-46
2022/12/15 11:02:19;;;;;;;25.13;17.92;;;;;;;10.43;98.49;96982.09;5093268;28;20020;-46
2022/12/15 11:04:58;;;;;;;23.15;14.65;;;;;;;10.40;97.60;96979.94;5093092;28;20497;-46
2022/12/15 11:07:40;;;;;;;19.45;12.93;;;;;;;10.24;97.48;96983.34;5093621;28;20423;-46
2022/12/15 11:10:25;;;;;;;17.25;9.07;;;;;;;10.13;98.13;96977.94;5093003;28;20032;-46
2022/12/15 11:13:14;;;;;;;38.05;27.17;;;;;;;10.02;97.87;96967.53;5092985;28;20020;-46
2022/12/15 11:15:49;;;;;;;14.77;10.23;;;;;;;9.99;97.74;96960.97;5093225;28;20115;-46
2022/12/15 11:18:22;;;;;;;;;;;;;;;9.79;97.36;96964.06;5092036;28;20047;-46
2022/12/15 11:21:10;;;;;;;32.42;12.38;;;;;;;9.68;98.29;96957.88;5091537;28;19957;-46
2022/12/15 11:23:48;;;;;;;18.20;13.93;;;;;;;9.61;98.11;96957.22;5092563;28;20047;-46
2022/12/15 11:26:26;;;;;;;21.20;14.32;;;;;;;9.52;98.08;96943.72;5092712;28;20539;-46
2022/12/15 11:29:00;;;;;;;33.90;22.38;;;;;;;9.53;98.72;96945.28;5092727;28;20032;-46
2022/12/15 11:31:33;;;;;;;18.17;14.38;;;;;;;9.51;98.68;96941.34;5092737;28;20032;-46
2022/12/15 11:33:59;;;;;;;44.30;15.68;;;;;;;9.46;98.91;96938.66;5091516;28;20440;-46
2022/12/15 11:36:30;;;;;;;38.00;14.43;;;;;;;9.46;99.54;96938.66;5092534;28;20028;-46
2022/12/15 11:39:07;;;;;;;51.17;24.42;;;;;;;9.46;99.58;96939.44;5092632;28;20028;-46
2022/12/15 11:41:49;;;;;;;36.30;17.00;;;;;;;9.44;99.90;96938.88;5092493;28;20460;-46
2022/12/15 11:44:26;;;;;;;52.60;15.23;;;;;;;9.53;100.00;96939.28;5091188;28;20398;-46
2022/12/15 11:47:18;;;;;;;78.93;19.50;;;;;;;9.59;100.00;96933.09;5091130;28;20024;-46
2022/12/15 11:50:07;;;;;;;31.40;15.52;;;;;;;9.62;100.00;96935.25;5092453;28;20036;-46
2022/12/15 11:52:53;;;;;;;35.78;21.80;;;;;;;9.58;100.00;96932.28;5082618;28;20066;-46
2022/12/15 11:55:47;;;;;;;34.97;18.35;;;;;;;9.46;100.00;96931.56;5074190;28;20448;-46
2022/12/15 11:58:34;;;;;;;66.38;17.65;;;;;;;9.38;100.00;96926.72;5092203;28;20032;-46
2022/12/15 12:01:08;;;;;;;164.18;22.90;;;;;;;9.35;100.00;96935.03;5090870;28;20026;-46
2022/12/15 12:03:49;;;;;;;28.73;17.80;;;;;;;9.26;100.00;96932.00;5091947;28;20031;-46
2022/12/15 12:06:49;;;;;;;26.20;17.52;;;;;;;9.13;100.00;96934.91;5092059;28;20031;-46
2022/12/15 12:09:32;;;;;;;23.90;17.95;;;;;;;8.62;99.10;96936.56;5092112;28;20393;-45
2022/12/15 12:12:12;;;;;;;25.30;18.85;;;;;;;8.32;99.76;96935.66;5092164;28;20542;-45
2022/12/15 12:14:43;;;;;;;31.65;20.20;;;;;;;8.25;100.00;96928.94;5092321;28;20036;-45
2022/12/15 12:17:36;;;;;;;31.70;21.25;;;;;;;8.13;100.00;96921.91;5091944;28;20067;-45
2022/12/15 12:20:20;;;;;;;26.40;19.42;;;;;;;8.24;100.00;96915.09;5090716;28;20024;-45
2022/12/15 12:23:01;;;;;;;27.88;18.98;;;;;;;8.31;100.00;96912.34;5091887;28;20165;-45
2022/12/15 12:25:30;;;;;;;25.55;17.50;;;;;;;8.19;100.00;96910.56;5092032;28;20028;-46
2022/12/15 12:28:05;;;;;;;24.77;18.75;;;;;;;8.09;100.00;96910.34;5091841;28;20020;-46
2022/12/15 12:30:43;;;;;;;24.40;17.02;;;;;;;8.19;100.00;96926.22;5090589;28;20043;-46
2022/12/15 12:33:27;;;;;;;27.20;18.30;;;;;;;8.23;100.00;96916.13;5092137;28;20402;-46
2022/12/15 12:35:58;;;;;;;23.88;16.02;;;;;;;8.20;100.00;96913.97;5090514;28;20047;-46
2022/12/15 12:38:32;;;;;;;27.60;15.98;;;;;;;8.15;100.00;96911.25;5090514;28;20447;-46
2022/12/15 12:41:04;;;;;;;34.22;23.38;;;;;;;8.11;100.00;96904.88;5091800;28;20024;-46
2022/12/15 12:43:33;;;;;;;26.17;18.77;;;;;;;8.18;100.00;96903.72;5090433;28;20020;-46
2022/12/15 12:46:12;;;;;;;57.40;36.25;;;;;;;8.39;100.00;96904.16;5091529;28;20061;-46
2022/12/15 12:48:57;;;;;;;29.55;18.20;;;;;;;8.58;100.00;96910.06;5091686;28;20033;-46
2022/12/15 12:51:32;;;;;;;41.47;20.17;;;;;;;8.65;100.00;96896.84;5090442;28;20069;-46
2022/12/15 12:53:59;;;;;;;22.77;17.48;;;;;;;8.56;100.00;96899.84;5091650;28;20031;-46
2022/12/15 12:56:43;;;;;;;31.10;19.73;;;;;;;8.56;100.00;96899.03;5091588;28;20394;-46
2022/12/15 12:59:27;;;;;;;87.30;50.80;;;;;;;8.49;100.00;96898.38;5091593;28;20035;-46
2022/12/15 13:01:54;;;;;;;29.58;19.88;;;;;;;8.50;100.00;96892.13;5091549;28;20071;-46
2022/12/15 13:04:29;;;;;;;38.60;25.60;;;;;;;8.46;100.00;96889.19;5091475;28;20027;-46
2022/12/15 13:06:54;;;;;;;27.20;18.77;;;;;;;8.56;100.00;96881.53;5091501;28;20024;-46
2022/12/15 13:09:23;;;;;;;28.02;19.10;;;;;;;8.44;100.00;96878.16;5091490;28;20089;-45
2022/12/15 13:11:52;;;;;;;24.08;18.02;;;;;;;8.29;100.00;96865.56;5091731;28;20462;-46
2022/12/15 13:14:26;;;;;;;24.65;17.23;;;;;;;8.19;100.00;96868.75;5091687;28;20027;-46
2022/12/15 13:16:56;;;;;;;35.75;20.30;;;;;;;8.05;100.00;96861.38;5095233;28;20036;-46
2022/12/15 13:19:57;;;;;;;28.58;16.85;;;;;;;8.02;100.00;96856.59;5093881;28;20028;-45
2022/12/15 13:22:36;;;;;;;26.08;16.85;;;;;;;8.23;100.00;96853.41;5061739;28;20390;-46
2022/12/15 13:25:35;;;;;;;36.13;18.08;;;;;;;8.29;100.00;96857.72;5095037;28;20022;-46
2022/12/15 13:28:30;;;;;;;26.95;16.42;;;;;;;8.07;100.00;96849.69;5093780;28;20066;-45
2022/12/15 13:31:17;;;;;;;28.30;18.10;;;;;;;7.99;100.00;96850.03;5095025;28;20070;-45
2022/12/15 13:33:49;;;;;;;28.15;18.38;;;;;;;7.98;100.00;96853.66;5095201;28;20393;-45
2022/12/15 13:36:36;;;;;;;26.27;18.90;;;;;;;7.97;100.00;96865.94;5094848;28;20020;-45
2022/12/15 13:39:03;;;;;;;40.13;27.65;;;;;;;8.01;100.00;96866.28;5094826;28;20034;-46
2022/12/15 13:41:29;;;;;;;35.05;21.95;;;;;;;8.03;100.00;96866.03;5093502;28;20016;-45
2022/12/15 13:43:57;;;;;;;33.63;19.38;;;;;;;8.29;100.00;96857.72;5093471;28;20367;-46
2022/12/15 13:46:28;;;;;;;82.03;23.88;;;;;;;8.43;100.00;96858.28;5093367;28;20494;-46
2022/12/15 13:49:12;;;;;;;205.80;87.57;;;;;;;8.65;100.00;96849.78;5094678;28;20052;-46
2022/12/15 13:51:42;;;;;;;123.07;32.00;;;;;;;8.89;100.00;96859.13;5094638;28;20031;-46
2022/12/15 13:54:16;;;;;;;218.63;33.70;;;;;;;8.96;100.00;96851.16;5093306;28;20111;-47
2022/12/15 13:57:02;;;;;;;73.07;28.35;;;;;;;8.91;100.00;96848.44;5094526;28;20031;-47
2022/12/15 13:59:47;;;;;;;34.95;21.60;;;;;;;8.96;100.00;96843.28;5093109;28;20028;-47
2022/12/15 14:02:34;;;;;;;310.75;41.90;;;;;;;8.89;100.00;96835.56;5093189;28;20024;-47
2022/12/15 14:05:06;;;;;;;52.25;22.58;;;;;;;8.87;100.00;96829.00;5094288;28;20024;-47
2022/12/15 14:07:33;;;;;;;829.67;75.32;;;;;;;8.88;100.00;96826.16;5094247;28;20027;-47
2022/12/15 14:10:00;;;;;;;350.48;50.65;;;;;;;8.98;100.00;96825.53;5094551;28;20149;-47
2022/12/15 14:12:25;;;;;;;185.38;28.52;;;;;;;9.07;100.00;96821.50;5094198;28;20585;-47
2022/12/15 14:14:51;;;;;;;1999.90;202.55;;;;;;;9.09;100.00;96829.91;5094169;28;20115;-47